sensor_id;sensor_type;location;lat;lon;timestamp;pressure;altitude;pressure_sealevel;temperature;humidity
59337;BME280;45115;52.002;4.686;2024-01-30T00:01:48;102759.16;;;6.18;95.31
59337;BME280;45115;52.002;4.686;2024-01-30T00:04:14;102761.69;;;6.18;94.81
59337;BME280;45115;52.002;4.686;2024-01-30T00:06:43;102751.56;;;6.24;94.91
59337;BME280;45115;52.002;4.686;2024-01-30T00:09:10;102754.16;;;6.27;94.78
59337;BME280;45115;52.002;4.686;2024-01-30T00:11:37;102751.59;;;6.30;94.59
59337;BME280;45115;52.002;4.686;2024-01-30T00:14:04;102754.09;;;6.22;94.50
59337;BME280;45115;52.002;4.686;2024-01-30T00:16:31;102744.75;;;6.23;94.63
59337;BME280;45115;52.002;4.686;2024-01-30T00:18:57;102751.50;;;6.18;94.83
59337;BME280;45115;52.002;4.686;2024-01-30T00:21:24;102749.81;;;6.20;94.39
59337;BME280;45115;52.002;4.686;2024-01-30T00:23:52;102749.78;;;6.17;94.43
59337;BME280;45115;52.002;4.686;2024-01-30T00:26:19;102746.44;;;6.21;94.67
59337;BME280;45115;52.002;4.686;2024-01-30T00:28:46;102749.84;;;6.21;94.78
59337;BME280;45115;52.002;4.686;2024-01-30T00:31:13;102754.03;;;6.18;94.89
59337;BME280;45115;52.002;4.686;2024-01-30T00:33:40;102747.25;;;6.18;94.94
59337;BME280;45115;52.002;4.686;2024-01-30T00:36:08;102742.94;;;6.13;94.92
59337;BME280;45115;52.002;4.686;2024-01-30T00:38:35;102731.13;;;6.21;94.79
59337;BME280;45115;52.002;4.686;2024-01-30T00:41:04;102719.25;;;6.23;94.62
59337;BME280;45115;52.002;4.686;2024-01-30T00:43:30;102720.16;;;6.26;94.86
59337;BME280;45115;52.002;4.686;2024-01-30T00:45:57;102721.00;;;6.31;94.84
59337;BME280;45115;52.002;4.686;2024-01-30T00:48:24;102714.28;;;6.39;94.48
59337;BME280;45115;52.002;4.686;2024-01-30T00:50:51;102720.25;;;6.40;94.01
59337;BME280;45115;52.002;4.686;2024-01-30T00:53:17;102724.44;;;6.33;94.54
59337;BME280;45115;52.002;4.686;2024-01-30T00:55:44;102727.81;;;6.31;94.17
59337;BME280;45115;52.002;4.686;2024-01-30T00:58:12;102739.66;;;6.23;94.16
59337;BME280;45115;52.002;4.686;2024-01-30T01:00:39;102745.59;;;6.23;94.75
59337;BME280;45115;52.002;4.686;2024-01-30T01:03:05;102747.28;;;6.20;94.45
59337;BME280;45115;52.002;4.686;2024-01-30T01:05:32;102755.72;;;6.14;94.48
59337;BME280;45115;52.002;4.686;2024-01-30T01:07:58;102748.84;;;6.08;94.86
59337;BME280;45115;52.002;4.686;2024-01-30T01:10:25;102741.97;;;6.03;95.09
59337;BME280;45115;52.002;4.686;2024-01-30T01:12:52;102741.94;;;5.95;94.80
59337;BME280;45115;52.002;4.686;2024-01-30T01:15:20;102737.66;;;5.93;94.88
59337;BME280;45115;52.002;4.686;2024-01-30T01:17:47;102735.16;;;5.96;95.08
59337;BME280;45115;52.002;4.686;2024-01-30T01:20:14;102725.78;;;5.93;95.01
59337;BME280;45115;52.002;4.686;2024-01-30T01:22:41;102720.66;;;5.92;94.92
59337;BME280;45115;52.002;4.686;2024-01-30T01:25:08;102714.78;;;5.99;95.46
59337;BME280;45115;52.002;4.686;2024-01-30T01:27:35;102719.03;;;5.98;95.41
59337;BME280;45115;52.002;4.686;2024-01-30T01:30:08;102714.84;;;6.08;95.09
59337;BME280;45115;52.002;4.686;2024-01-30T01:32:37;102723.38;;;6.10;94.60
59337;BME280;45115;52.002;4.686;2024-01-30T01:35:04;102717.34;;;6.03;95.15
59337;BME280;45115;52.002;4.686;2024-01-30T01:37:31;102711.38;;;5.98;95.28
59337;BME280;45115;52.002;4.686;2024-01-30T01:39:58;102710.56;;;6.02;95.48
59337;BME280;45115;52.002;4.686;2024-01-30T01:42:25;102713.16;;;6.08;95.50
59337;BME280;45115;52.002;4.686;2024-01-30T01:44:52;102714.84;;;6.08;95.23
59337;BME280;45115;52.002;4.686;2024-01-30T01:47:18;102715.78;;;6.15;95.33
59337;BME280;45115;52.002;4.686;2024-01-30T01:49:47;102699.66;;;6.16;94.79
59337;BME280;45115;52.002;4.686;2024-01-30T01:52:14;102709.94;;;6.25;94.42
59337;BME280;45115;52.002;4.686;2024-01-30T01:54:40;102713.38;;;6.28;94.44
59337;BME280;45115;52.002;4.686;2024-01-30T01:57:07;102727.06;;;6.41;94.46
59337;BME280;45115;52.002;4.686;2024-01-30T01:59:34;102726.22;;;6.42;93.80
59337;BME280;45115;52.002;4.686;2024-01-30T02:02:02;102721.13;;;6.42;93.84
59337;BME280;45115;52.002;4.686;2024-01-30T02:04:30;102716.00;;;6.42;93.68
59337;BME280;45115;52.002;4.686;2024-01-30T02:06:58;102708.41;;;6.48;94.24
59337;BME280;45115;52.002;4.686;2024-01-30T02:09:24;102706.78;;;6.55;94.23
59337;BME280;45115;52.002;4.686;2024-01-30T02:11:51;102708.47;;;6.59;93.94
59337;BME280;45115;52.002;4.686;2024-01-30T02:14:19;102703.44;;;6.66;93.71
59337;BME280;45115;52.002;4.686;2024-01-30T02:16:45;102694.97;;;6.72;93.37
59337;BME280;45115;52.002;4.686;2024-01-30T02:19:12;102683.06;;;6.69;93.49
59337;BME280;45115;52.002;4.686;2024-01-30T02:21:40;102680.50;;;6.69;93.08
59337;BME280;45115;52.002;4.686;2024-01-30T02:24:07;102681.38;;;6.73;93.19
59337;BME280;45115;52.002;4.686;2024-01-30T02:26:33;102687.38;;;6.81;93.13
59337;BME280;45115;52.002;4.686;2024-01-30T02:29:00;102689.06;;;6.76;92.69
59337;BME280;45115;52.002;4.686;2024-01-30T02:31:27;102686.47;;;6.71;93.35
59337;BME280;45115;52.002;4.686;2024-01-30T02:33:53;102690.75;;;6.75;93.22
59337;BME280;45115;52.002;4.686;2024-01-30T02:36:20;102693.28;;;6.71;93.23
59337;BME280;45115;52.002;4.686;2024-01-30T02:38:48;102695.84;;;6.72;93.35
59337;BME280;45115;52.002;4.686;2024-01-30T02:41:14;102688.16;;;6.68;93.52
59337;BME280;45115;52.002;4.686;2024-01-30T02:43:41;102687.28;;;6.67;93.66
59337;BME280;45115;52.002;4.686;2024-01-30T02:46:08;102680.47;;;6.66;93.28
59337;BME280;45115;52.002;4.686;2024-01-30T02:48:34;102689.84;;;6.66;93.27
59337;BME280;45115;52.002;4.686;2024-01-30T02:51:01;102686.47;;;6.71;93.67
59337;BME280;45115;52.002;4.686;2024-01-30T02:53:28;102687.31;;;6.72;93.89
59337;BME280;45115;52.002;4.686;2024-01-30T02:55:56;102672.91;;;6.77;93.41
59337;BME280;45115;52.002;4.686;2024-01-30T02:58:23;102671.19;;;6.76;93.30
59337;BME280;45115;52.002;4.686;2024-01-30T03:00:49;102672.88;;;6.72;93.39
59337;BME280;45115;52.002;4.686;2024-01-30T03:03:15;102671.22;;;6.79;93.44
59337;BME280;45115;52.002;4.686;2024-01-30T03:05:42;102667.00;;;6.87;92.72
59337;BME280;45115;52.002;4.686;2024-01-30T03:08:08;102658.47;;;6.87;92.88
59337;BME280;45115;52.002;4.686;2024-01-30T03:10:35;102657.66;;;6.89;92.48
59337;BME280;45115;52.002;4.686;2024-01-30T03:13:03;102645.75;;;6.91;92.55
59337;BME280;45115;52.002;4.686;2024-01-30T03:15:30;102648.31;;;6.91;92.55
59337;BME280;45115;52.002;4.686;2024-01-30T03:17:56;102654.28;;;6.95;91.91
59337;BME280;45115;52.002;4.686;2024-01-30T03:20:23;102657.72;;;7.01;92.19
59337;BME280;45115;52.002;4.686;2024-01-30T03:22:50;102659.38;;;6.95;92.31
59337;BME280;45115;52.002;4.686;2024-01-30T03:25:16;102660.19;;;6.88;92.19
59337;BME280;45115;52.002;4.686;2024-01-30T03:27:43;102658.50;;;6.84;92.77
59337;BME280;45115;52.002;4.686;2024-01-30T03:30:11;102653.38;;;6.87;92.58
59337;BME280;45115;52.002;4.686;2024-01-30T03:32:38;102653.41;;;6.90;92.49
59337;BME280;45115;52.002;4.686;2024-01-30T03:35:05;102659.31;;;6.84;92.89
59337;BME280;45115;52.002;4.686;2024-01-30T03:37:32;102654.22;;;6.83;92.94
59337;BME280;45115;52.002;4.686;2024-01-30T03:39:59;102662.72;;;6.85;92.50
59337;BME280;45115;52.002;4.686;2024-01-30T03:42:25;102663.59;;;6.90;92.28
59337;BME280;45115;52.002;4.686;2024-01-30T03:44:54;102661.03;;;6.87;92.30
59337;BME280;45115;52.002;4.686;2024-01-30T03:47:22;102654.22;;;6.84;92.53
59337;BME280;45115;52.002;4.686;2024-01-30T03:49:49;102654.25;;;6.89;92.62
59337;BME280;45115;52.002;4.686;2024-01-30T03:52:16;102655.94;;;6.90;92.58
59337;BME280;45115;52.002;4.686;2024-01-30T03:54:43;102653.44;;;6.96;92.18
59337;BME280;45115;52.002;4.686;2024-01-30T03:57:10;102658.53;;;6.97;92.40
59337;BME280;45115;52.002;4.686;2024-01-30T03:59:37;102652.59;;;6.98;92.62
59337;BME280;45115;52.002;4.686;2024-01-30T04:02:04;102654.28;;;6.95;92.45
59337;BME280;45115;52.002;4.686;2024-01-30T04:04:32;102655.13;;;6.95;92.18
59337;BME280;45115;52.002;4.686;2024-01-30T04:06:58;102658.50;;;6.90;92.76
59337;BME280;45115;52.002;4.686;2024-01-30T04:09:25;102647.44;;;6.89;92.88
59337;BME280;45115;52.002;4.686;2024-01-30T04:11:53;102648.28;;;6.88;92.83
59337;BME280;45115;52.002;4.686;2024-01-30T04:14:20;102643.19;;;6.84;92.84
59337;BME280;45115;52.002;4.686;2024-01-30T04:16:47;102646.56;;;6.87;92.75
59337;BME280;45115;52.002;4.686;2024-01-30T04:19:13;102646.56;;;6.83;92.61
59337;BME280;45115;52.002;4.686;2024-01-30T04:21:41;102649.94;;;6.77;93.12
59337;BME280;45115;52.002;4.686;2024-01-30T04:24:08;102642.28;;;6.77;92.71
59337;BME280;45115;52.002;4.686;2024-01-30T04:26:35;102643.09;;;6.73;93.09
59337;BME280;45115;52.002;4.686;2024-01-30T04:29:02;102642.25;;;6.74;93.07
59337;BME280;45115;52.002;4.686;2024-01-30T04:31:28;102638.84;;;6.72;92.97
59337;BME280;45115;52.002;4.686;2024-01-30T04:33:55;102636.28;;;6.70;93.09
59337;BME280;45115;52.002;4.686;2024-01-30T04:36:21;102639.69;;;6.69;93.10
59337;BME280;45115;52.002;4.686;2024-01-30T04:38:49;102632.91;;;6.71;93.89
59337;BME280;45115;52.002;4.686;2024-01-30T04:41:16;102627.78;;;6.71;93.53
59337;BME280;45115;52.002;4.686;2024-01-30T04:43:43;102626.13;;;6.78;93.41
59337;BME280;45115;52.002;4.686;2024-01-30T04:46:09;102626.13;;;6.84;93.53
59337;BME280;45115;52.002;4.686;2024-01-30T04:48:36;102624.44;;;6.86;92.93
59337;BME280;45115;52.002;4.686;2024-01-30T04:51:03;102631.25;;;6.84;92.96
59337;BME280;45115;52.002;4.686;2024-01-30T04:53:30;102622.75;;;6.85;93.16
59337;BME280;45115;52.002;4.686;2024-01-30T04:55:58;102630.44;;;6.93;92.91
59337;BME280;45115;52.002;4.686;2024-01-30T04:58:25;102621.94;;;6.95;92.98
59337;BME280;45115;52.002;4.686;2024-01-30T05:00:52;102612.59;;;6.94;92.62
59337;BME280;45115;52.002;4.686;2024-01-30T05:03:19;102617.69;;;6.93;92.80
59337;BME280;45115;52.002;4.686;2024-01-30T05:05:47;102627.88;;;6.90;93.23
59337;BME280;45115;52.002;4.686;2024-01-30T05:08:14;102625.34;;;6.94;93.25
59337;BME280;45115;52.002;4.686;2024-01-30T05:10:41;102627.91;;;6.96;93.27
59337;BME280;45115;52.002;4.686;2024-01-30T05:13:09;102627.94;;;7.02;92.91
59337;BME280;45115;52.002;4.686;2024-01-30T05:15:35;102621.19;;;7.10;93.20
59337;BME280;45115;52.002;4.686;2024-01-30T05:18:02;102613.53;;;7.24;92.11
59337;BME280;45115;52.002;4.686;2024-01-30T05:20:29;102616.16;;;7.34;91.77
59337;BME280;45115;52.002;4.686;2024-01-30T05:22:56;102617.88;;;7.38;92.07
59337;BME280;45115;52.002;4.686;2024-01-30T05:25:22;102615.31;;;7.54;91.53
59337;BME280;45115;52.002;4.686;2024-01-30T05:27:50;102627.28;;;7.62;91.58
59337;BME280;45115;52.002;4.686;2024-01-30T05:30:18;102613.63;;;7.69;91.05
59337;BME280;45115;52.002;4.686;2024-01-30T05:32:45;102617.91;;;7.72;90.89
59337;BME280;45115;52.002;4.686;2024-01-30T05:35:12;102617.91;;;7.72;91.17
59337;BME280;45115;52.002;4.686;2024-01-30T05:37:38;102614.50;;;7.76;90.47
59337;BME280;45115;52.002;4.686;2024-01-30T05:40:06;102623.88;;;7.78;90.58
59337;BME280;45115;52.002;4.686;2024-01-30T05:42:33;102621.31;;;7.83;90.73
59337;BME280;45115;52.002;4.686;2024-01-30T05:44:59;102620.47;;;7.86;90.43
59337;BME280;45115;52.002;4.686;2024-01-30T05:47:27;102620.50;;;7.92;90.51
59337;BME280;45115;52.002;4.686;2024-01-30T05:49:54;102624.72;;;8.00;89.96
59337;BME280;45115;52.002;4.686;2024-01-30T05:52:20;102624.75;;;7.88;90.50
59337;BME280;45115;52.002;4.686;2024-01-30T05:54:47;102623.03;;;7.90;90.50
59337;BME280;45115;52.002;4.686;2024-01-30T05:57:14;102627.28;;;7.97;90.53
59337;BME280;45115;52.002;4.686;2024-01-30T05:59:40;102641.78;;;8.01;89.65
59337;BME280;45115;52.002;4.686;2024-01-30T06:02:07;102634.09;;;7.94;90.12
59337;BME280;45115;52.002;4.686;2024-01-30T06:04:35;102630.69;;;7.93;90.52
59337;BME280;45115;52.002;4.686;2024-01-30T06:07:02;102630.69;;;7.99;90.07
59337;BME280;45115;52.002;4.686;2024-01-30T06:09:29;102637.50;;;7.99;90.35
59337;BME280;45115;52.002;4.686;2024-01-30T06:11:56;102642.63;;;8.02;89.73
59337;BME280;45115;52.002;4.686;2024-01-30T06:14:23;102637.53;;;8.03;90.52
59337;BME280;45115;52.002;4.686;2024-01-30T06:16:50;102647.75;;;8.09;89.66
59337;BME280;45115;52.002;4.686;2024-01-30T06:19:16;102641.78;;;8.15;89.54
59337;BME280;45115;52.002;4.686;2024-01-30T06:21:44;102640.09;;;8.12;90.05
59337;BME280;45115;52.002;4.686;2024-01-30T06:24:11;102634.13;;;8.20;89.83
59337;BME280;45115;52.002;4.686;2024-01-30T06:26:37;102635.81;;;8.28;89.37
59337;BME280;45115;52.002;4.686;2024-01-30T06:29:04;102644.31;;;8.27;89.23
59337;BME280;45115;52.002;4.686;2024-01-30T06:31:31;102638.34;;;8.27;89.18
59337;BME280;45115;52.002;4.686;2024-01-30T06:33:57;102645.19;;;8.31;89.23
59337;BME280;45115;52.002;4.686;2024-01-30T06:36:24;102637.53;;;8.35;89.38
59337;BME280;45115;52.002;4.686;2024-01-30T06:38:52;102641.81;;;8.38;89.11
59337;BME280;45115;52.002;4.686;2024-01-30T06:41:19;102644.34;;;8.44;88.90
59337;BME280;45115;52.002;4.686;2024-01-30T06:43:45;102640.94;;;8.46;88.51
59337;BME280;45115;52.002;4.686;2024-01-30T06:46:12;102636.66;;;8.50;88.42
59337;BME280;45115;52.002;4.686;2024-01-30T06:48:39;102639.25;;;8.45;89.02
59337;BME280;45115;52.002;4.686;2024-01-30T06:51:06;102636.66;;;8.53;88.69
59337;BME280;45115;52.002;4.686;2024-01-30T06:53:33;102640.06;;;8.58;88.00
59337;BME280;45115;52.002;4.686;2024-01-30T06:56:06;102642.63;;;8.55;88.08
59337;BME280;45115;52.002;4.686;2024-01-30T06:58:34;102640.91;;;8.53;88.51
59337;BME280;45115;52.002;4.686;2024-01-30T07:01:00;102645.19;;;8.58;88.51
59337;BME280;45115;52.002;4.686;2024-01-30T07:03:27;102643.47;;;8.66;88.24
59337;BME280;45115;52.002;4.686;2024-01-30T07:05:54;102647.72;;;8.70;88.08
59337;BME280;45115;52.002;4.686;2024-01-30T07:08:20;102650.28;;;8.73;88.51
59337;BME280;45115;52.002;4.686;2024-01-30T07:10:47;102658.78;;;8.78;87.99
59337;BME280;45115;52.002;4.686;2024-01-30T07:13:15;102662.16;;;8.85;88.17
59337;BME280;45115;52.002;4.686;2024-01-30T07:15:42;102661.31;;;8.88;87.97
59337;BME280;45115;52.002;4.686;2024-01-30T07:18:09;102655.34;;;8.82;87.68
59337;BME280;45115;52.002;4.686;2024-01-30T07:20:36;102664.75;;;8.80;87.61
59337;BME280;45115;52.002;4.686;2024-01-30T07:23:03;102664.72;;;8.88;87.55
59337;BME280;45115;52.002;4.686;2024-01-30T07:25:30;102672.41;;;8.90;87.88
59337;BME280;45115;52.002;4.686;2024-01-30T07:27:57;102665.56;;;8.95;87.62
59337;BME280;45115;52.002;4.686;2024-01-30T07:30:25;102674.13;;;8.89;87.86
59337;BME280;45115;52.002;4.686;2024-01-30T07:32:51;102672.38;;;8.97;87.98
59337;BME280;45115;52.002;4.686;2024-01-30T07:35:18;102677.50;;;8.99;87.65
59337;BME280;45115;52.002;4.686;2024-01-30T07:37:45;102684.28;;;9.09;87.57
59337;BME280;45115;52.002;4.686;2024-01-30T07:40:11;102697.94;;;9.14;87.52
59337;BME280;45115;52.002;4.686;2024-01-30T07:42:38;102689.38;;;9.15;87.77
59337;BME280;45115;52.002;4.686;2024-01-30T07:45:05;102694.53;;;9.12;87.82
59337;BME280;45115;52.002;4.686;2024-01-30T07:47:35;102683.41;;;9.22;87.50
59337;BME280;45115;52.002;4.686;2024-01-30T07:50:01;102684.22;;;9.29;87.42
59337;BME280;45115;52.002;4.686;2024-01-30T07:52:28;102691.88;;;9.30;87.20
59337;BME280;45115;52.002;4.686;2024-01-30T07:54:55;102691.03;;;9.31;87.30
59337;BME280;45115;52.002;4.686;2024-01-30T07:57:22;102693.56;;;9.40;87.12
59337;BME280;45115;52.002;4.686;2024-01-30T07:59:48;102689.25;;;9.47;87.10
59337;BME280;45115;52.002;4.686;2024-01-30T08:02:15;102693.53;;;9.48;86.75
59337;BME280;45115;52.002;4.686;2024-01-30T08:04:45;102697.78;;;9.54;87.21
59337;BME280;45115;52.002;4.686;2024-01-30T08:07:13;102697.78;;;9.49;87.53
59337;BME280;45115;52.002;4.686;2024-01-30T08:09:40;102696.06;;;9.56;87.40
59337;BME280;45115;52.002;4.686;2024-01-30T08:12:07;102698.56;;;9.65;86.44
59337;BME280;45115;52.002;4.686;2024-01-30T08:14:34;102700.25;;;9.67;86.94
59337;BME280;45115;52.002;4.686;2024-01-30T08:17:00;102711.31;;;9.77;86.75
59337;BME280;45115;52.002;4.686;2024-01-30T08:19:27;102714.75;;;9.76;86.59
59337;BME280;45115;52.002;4.686;2024-01-30T08:21:55;102709.59;;;9.76;86.79
59337;BME280;45115;52.002;4.686;2024-01-30T08:24:21;102712.16;;;9.80;86.27
59337;BME280;45115;52.002;4.686;2024-01-30T08:26:48;102716.44;;;9.78;86.51
59337;BME280;45115;52.002;4.686;2024-01-30T08:29:15;102712.13;;;9.83;86.71
59337;BME280;45115;52.002;4.686;2024-01-30T08:31:41;102719.75;;;9.94;86.16
59337;BME280;45115;52.002;4.686;2024-01-30T08:34:09;102719.75;;;9.94;86.51
59337;BME280;45115;52.002;4.686;2024-01-30T08:36:36;102719.69;;;10.03;85.99
59337;BME280;45115;52.002;4.686;2024-01-30T08:39:04;102723.09;;;10.05;85.77
59337;BME280;45115;52.002;4.686;2024-01-30T08:41:32;102724.81;;;10.06;85.77
59337;BME280;45115;52.002;4.686;2024-01-30T08:43:58;102726.44;;;10.13;85.74
59337;BME280;45115;52.002;4.686;2024-01-30T08:46:25;102723.00;;;10.17;85.35
59337;BME280;45115;52.002;4.686;2024-01-30T08:48:52;102721.28;;;10.21;85.37
59337;BME280;45115;52.002;4.686;2024-01-30T08:51:19;102718.69;;;10.26;84.91
59337;BME280;45115;52.002;4.686;2024-01-30T08:53:45;102722.94;;;10.30;85.14
59337;BME280;45115;52.002;4.686;2024-01-30T08:56:13;102728.88;;;10.39;84.22
59337;BME280;45115;52.002;4.686;2024-01-30T08:58:41;102723.69;;;10.42;84.30
59337;BME280;45115;52.002;4.686;2024-01-30T09:01:08;102726.19;;;10.50;83.85
59337;BME280;45115;52.002;4.686;2024-01-30T09:03:34;102724.47;;;10.52;83.21
59337;BME280;45115;52.002;4.686;2024-01-30T09:06:03;102727.84;;;10.57;83.36
59337;BME280;45115;52.002;4.686;2024-01-30T09:08:29;102727.84;;;10.60;83.18
59337;BME280;45115;52.002;4.686;2024-01-30T09:10:56;102732.13;;;10.58;83.23
59337;BME280;45115;52.002;4.686;2024-01-30T09:13:24;102724.38;;;10.64;82.58
59337;BME280;45115;52.002;4.686;2024-01-30T09:15:51;102727.84;;;10.60;82.93
59337;BME280;45115;52.002;4.686;2024-01-30T09:18:18;102736.28;;;10.68;82.85
59337;BME280;45115;52.002;4.686;2024-01-30T09:20:44;102743.97;;;10.71;82.60
59337;BME280;45115;52.002;4.686;2024-01-30T09:23:12;102743.91;;;10.79;82.35
59337;BME280;45115;52.002;4.686;2024-01-30T09:25:39;102737.84;;;10.86;82.23
59337;BME280;45115;52.002;4.686;2024-01-30T09:28:06;102748.22;;;10.75;82.17
59337;BME280;45115;52.002;4.686;2024-01-30T09:30:34;102743.97;;;10.73;82.80
59337;BME280;45115;52.002;4.686;2024-01-30T09:33:00;102747.34;;;10.76;82.16
59337;BME280;45115;52.002;4.686;2024-01-30T09:35:27;102752.47;;;10.79;81.83
59337;BME280;45115;52.002;4.686;2024-01-30T09:37:54;102757.50;;;10.90;81.82
59337;BME280;45115;52.002;4.686;2024-01-30T09:40:22;102755.78;;;10.92;81.62
59337;BME280;45115;52.002;4.686;2024-01-30T09:42:51;102768.56;;;10.97;81.58
59337;BME280;45115;52.002;4.686;2024-01-30T09:45:19;102763.56;;;10.84;81.78
59337;BME280;45115;52.002;4.686;2024-01-30T09:47:47;102758.44;;;10.83;81.90
59337;BME280;45115;52.002;4.686;2024-01-30T09:50:14;102765.25;;;10.85;82.20
59337;BME280;45115;52.002;4.686;2024-01-30T09:52:42;102768.69;;;10.86;81.61
59337;BME280;45115;52.002;4.686;2024-01-30T09:55:09;102788.41;;;10.82;81.76
59337;BME280;45115;52.002;4.686;2024-01-30T09:57:36;102789.34;;;10.71;81.41
59337;BME280;45115;52.002;4.686;2024-01-30T10:00:03;102776.47;;;10.74;81.87
59337;BME280;45115;52.002;4.686;2024-01-30T10:02:38;102773.88;;;10.80;81.82
59337;BME280;45115;52.002;4.686;2024-01-30T10:05:07;102778.16;;;10.79;80.69
59337;BME280;45115;52.002;4.686;2024-01-30T10:07:34;102779.88;;;10.76;80.13
59337;BME280;45115;52.002;4.686;2024-01-30T10:10:01;102795.25;;;10.80;78.74
59337;BME280;45115;52.002;4.686;2024-01-30T10:12:29;102781.59;;;10.77;77.14
59337;BME280;45115;52.002;4.686;2024-01-30T10:14:56;102785.06;;;10.71;78.17
59337;BME280;45115;52.002;4.686;2024-01-30T10:17:25;102785.88;;;10.76;77.55
59337;BME280;45115;52.002;4.686;2024-01-30T10:19:52;102785.03;;;10.76;77.37
59337;BME280;45115;52.002;4.686;2024-01-30T10:22:20;102789.41;;;10.66;77.75
59337;BME280;45115;52.002;4.686;2024-01-30T10:24:48;102793.78;;;10.54;78.54
59337;BME280;45115;52.002;4.686;2024-01-30T10:27:14;102789.53;;;10.48;79.28
59337;BME280;45115;52.002;4.686;2024-01-30T10:29:41;102791.41;;;10.26;80.29
59337;BME280;45115;52.002;4.686;2024-01-30T10:32:08;102806.88;;;10.11;80.33
59337;BME280;45115;52.002;4.686;2024-01-30T10:34:35;102824.78;;;10.14;80.36
59337;BME280;45115;52.002;4.686;2024-01-30T10:37:07;102805.97;;;10.21;78.53
59337;BME280;45115;52.002;4.686;2024-01-30T10:39:39;102824.75;;;10.28;78.68
59337;BME280;45115;52.002;4.686;2024-01-30T10:42:11;102828.22;;;10.19;77.86
59337;BME280;45115;52.002;4.686;2024-01-30T10:44:44;102823.09;;;10.13;77.99
59337;BME280;45115;52.002;4.686;2024-01-30T10:47:18;102831.72;;;10.03;79.09
59337;BME280;45115;52.002;4.686;2024-01-30T10:49:47;102828.28;;;10.02;78.97
59337;BME280;45115;52.002;4.686;2024-01-30T10:52:16;102830.03;;;9.91;77.54
59337;BME280;45115;52.002;4.686;2024-01-30T10:54:45;102827.56;;;9.77;77.32
59337;BME280;45115;52.002;4.686;2024-01-30T10:57:12;102826.69;;;9.78;78.14
59337;BME280;45115;52.002;4.686;2024-01-30T10:59:40;102846.38;;;9.73;77.96
59337;BME280;45115;52.002;4.686;2024-01-30T11:02:07;102827.56;;;9.70;77.70
59337;BME280;45115;52.002;4.686;2024-01-30T11:04:38;102831.84;;;9.68;78.20
59337;BME280;45115;52.002;4.686;2024-01-30T11:07:14;102835.28;;;9.61;78.41
59337;BME280;45115;52.002;4.686;2024-01-30T11:09:41;102840.44;;;9.56;78.44
59337;BME280;45115;52.002;4.686;2024-01-30T11:12:15;102825.94;;;9.47;79.31
59337;BME280;45115;52.002;4.686;2024-01-30T11:14:42;102832.78;;;9.45;79.92
59337;BME280;45115;52.002;4.686;2024-01-30T11:17:10;102837.06;;;9.39;81.00
59337;BME280;45115;52.002;4.686;2024-01-30T11:19:37;102837.06;;;9.37;80.75
59337;BME280;45115;52.002;4.686;2024-01-30T11:22:06;102843.94;;;9.28;81.28
59337;BME280;45115;52.002;4.686;2024-01-30T11:24:39;102853.31;;;9.18;81.11
59337;BME280;45115;52.002;4.686;2024-01-30T11:27:08;102848.19;;;9.18;81.47
59337;BME280;45115;52.002;4.686;2024-01-30T11:29:36;102848.19;;;9.20;81.06
59337;BME280;45115;52.002;4.686;2024-01-30T11:32:03;102833.69;;;9.11;80.23
59337;BME280;45115;52.002;4.686;2024-01-30T11:34:32;102861.84;;;9.05;80.69
59337;BME280;45115;52.002;4.686;2024-01-30T11:37:02;102861.84;;;9.03;80.76
59337;BME280;45115;52.002;4.686;2024-01-30T11:39:30;102858.47;;;8.94;80.20
59337;BME280;45115;52.002;4.686;2024-01-30T11:41:57;102870.41;;;8.92;81.02
59337;BME280;45115;52.002;4.686;2024-01-30T11:44:25;102863.56;;;8.86;80.38
59337;BME280;45115;52.002;4.686;2024-01-30T11:46:53;102871.25;;;8.88;80.85
59337;BME280;45115;52.002;4.686;2024-01-30T11:49:20;102862.72;;;8.86;79.76
59337;BME280;45115;52.002;4.686;2024-01-30T11:51:50;102843.09;;;8.91;80.02
59337;BME280;45115;52.002;4.686;2024-01-30T11:54:17;102855.91;;;8.94;79.59
59337;BME280;45115;52.002;4.686;2024-01-30T11:56:44;102861.88;;;8.99;79.47
59337;BME280;45115;52.002;4.686;2024-01-30T11:59:11;102857.63;;;9.01;78.89
59337;BME280;45115;52.002;4.686;2024-01-30T12:01:38;102857.63;;;8.99;79.12
59337;BME280;45115;52.002;4.686;2024-01-30T12:04:06;102864.44;;;9.00;79.37
59337;BME280;45115;52.002;4.686;2024-01-30T12:06:34;102865.31;;;9.01;79.59
59337;BME280;45115;52.002;4.686;2024-01-30T12:09:02;102861.03;;;9.01;79.67
59337;BME280;45115;52.002;4.686;2024-01-30T12:11:30;102865.28;;;9.04;79.25
59337;BME280;45115;52.002;4.686;2024-01-30T12:13:57;102873.81;;;9.07;79.57
59337;BME280;45115;52.002;4.686;2024-01-30T12:16:24;102873.81;;;9.06;79.61
59337;BME280;45115;52.002;4.686;2024-01-30T12:18:59;102867.84;;;9.04;79.87
59337;BME280;45115;52.002;4.686;2024-01-30T12:21:27;102876.41;;;8.98;79.80
59337;BME280;45115;52.002;4.686;2024-01-30T12:23:54;102870.41;;;8.98;80.38
59337;BME280;45115;52.002;4.686;2024-01-30T12:26:21;102879.78;;;9.09;80.82
59337;BME280;45115;52.002;4.686;2024-01-30T12:28:48;102878.97;;;8.97;81.82
59337;BME280;45115;52.002;4.686;2024-01-30T18:34:52;103359.03;;;6.60;92.37
59337;BME280;45115;52.002;4.686;2024-01-30T18:37:19;103361.63;;;6.63;92.70
59337;BME280;45115;52.002;4.686;2024-01-30T18:39:45;103374.44;;;6.66;92.16
59337;BME280;45115;52.002;4.686;2024-01-30T18:42:12;103376.22;;;6.70;92.03
59337;BME280;45115;52.002;4.686;2024-01-30T18:44:39;103372.72;;;6.65;92.05
59337;BME280;45115;52.002;4.686;2024-01-30T18:47:05;103372.66;;;6.62;92.41
59337;BME280;45115;52.002;4.686;2024-01-30T18:49:32;103379.56;;;6.66;91.99
59337;BME280;45115;52.002;4.686;2024-01-30T18:52:00;103377.84;;;6.65;91.60
59337;BME280;45115;52.002;4.686;2024-01-30T18:54:29;103379.44;;;6.60;91.69
59337;BME280;45115;52.002;4.686;2024-01-30T18:56:56;103379.47;;;6.62;91.39
59337;BME280;45115;52.002;4.686;2024-01-30T18:59:23;103378.50;;;6.57;91.71
59337;BME280;45115;52.002;4.686;2024-01-30T19:01:49;103382.78;;;6.56;91.58